Time;durP1;ratioP1;P1;durP2;ratioP2;P2;SDS_P1;SDS_P2;PMS_P1;PMS_P2;Temp;Humidity;BMP_temperature;BMP_pressure;BME280_temperature;BME280_humidity;BME280_pressure;Samples;Min_cycle;Max_cycle;Signal;HPM_P1;HPM_P2
2022/04/08 00:01:25;;;;;;;8.15;1.55;;;5.40;86.60;;;;;;5135280;27;20038;-60
2022/04/08 00:03:54;;;;;;;8.35;2.28;;;5.40;87.00;;;;;;5135379;27;20428;-63
2022/04/08 00:06:23;;;;;;;7.95;1.65;;;5.40;87.30;;;;;;5134733;27;20027;-63
2022/04/08 00:08:49;;;;;;;10.93;2.57;;;5.30;87.70;;;;;;5152918;27;20023;-61
2022/04/08 00:11:15;;;;;;;11.20;1.98;;;5.30;88.00;;;;;;5141028;27;20119;-60
2022/04/08 00:13:41;;;;;;;9.35;2.45;;;5.30;87.90;;;;;;5133388;27;20039;-60
2022/04/08 00:16:08;;;;;;;5.60;1.83;;;5.30;87.70;;;;;;5132289;27;20049;-58
2022/04/08 00:18:35;;;;;;;9.38;1.35;;;5.20;87.60;;;;;;5154271;27;20102;-55
2022/04/08 00:21:01;;;;;;;10.07;1.65;;;5.10;87.30;;;;;;5156558;27;20026;-59
2022/04/08 00:23:27;;;;;;;10.07;2.28;;;5.10;87.60;;;;;;5157820;27;20018;-58
2022/04/08 00:25:52;;;;;;;9.77;1.63;;;5.20;87.30;;;;;;5156033;27;20327;-58
2022/04/08 00:28:18;;;;;;;10.23;1.60;;;5.20;87.10;;;;;;5158313;27;20322;-55
2022/04/08 00:30:43;;;;;;;11.02;1.60;;;5.20;87.00;;;;;;5178323;27;20026;-53
2022/04/08 00:33:09;;;;;;;9.90;1.50;;;5.20;87.10;;;;;;5160552;27;20436;-50
2022/04/08 00:35:34;;;;;;;5.55;1.33;;;5.30;87.20;;;;;;5159542;27;20038;-52
2022/04/08 00:38:00;;;;;;;3.92;1.40;;;5.30;87.40;;;;;;5178781;27;20437;-51
2022/04/08 00:40:26;;;;;;;13.68;1.30;;;5.30;87.20;;;;;;5176784;27;20030;-52
2022/04/08 00:42:51;;;;;;;7.65;1.20;;;5.30;86.60;;;;;;5176703;27;20038;-55
2022/04/08 00:45:17;;;;;;;3.10;0.95;;;5.30;86.20;;;;;;5176173;27;20030;-51
2022/04/08 00:47:44;;;;;;;4.97;1.13;;;5.30;85.90;;;;;;5176991;27;20030;-53
2022/04/08 00:50:13;;;;;;;5.47;1.27;;;5.30;86.00;;;;;;5159560;27;20019;-54
2022/04/08 00:52:44;;;;;;;4.45;1.23;;;5.30;86.20;;;;;;5177697;27;20086;-53
2022/04/08 00:55:13;;;;;;;4.35;0.98;;;5.30;86.30;;;;;;5170017;27;20081;-60
2022/04/08 00:57:41;;;;;;;4.80;0.80;;;5.30;86.30;;;;;;5172556;27;20022;-59
2022/04/08 01:00:09;;;;;;;5.03;0.70;;;5.20;86.40;;;;;;5176514;27;20026;-58
2022/04/08 01:02:35;;;;;;;5.68;0.77;;;5.10;86.50;;;;;;5159121;27;20148;-57
2022/04/08 01:05:01;;;;;;;2.88;0.85;;;5.00;86.80;;;;;;5158489;27;20434;-51
2022/04/08 01:07:27;;;;;;;7.43;1.08;;;5.00;87.10;;;;;;5177459;27;20019;-51
2022/04/08 01:09:54;;;;;;;5.20;0.98;;;4.90;87.30;;;;;;5174158;27;20026;-54
2022/04/08 01:12:19;;;;;;;7.40;1.17;;;5.00;87.60;;;;;;5163692;27;20036;-51
2022/04/08 01:14:45;;;;;;;8.85;1.83;;;5.00;87.60;;;;;;5155234;27;20353;-52
2022/04/08 01:17:13;;;;;;;5.90;1.70;;;5.10;87.60;;;;;;5141257;27;20102;-57
2022/04/08 01:19:38;;;;;;;10.25;1.80;;;5.00;87.50;;;;;;5170828;27;20061;-60
2022/04/08 01:22:04;;;;;;;15.00;2.63;;;5.10;87.70;;;;;;5172741;27;20057;-59
2022/04/08 01:24:35;;;;;;;7.55;1.77;;;4.90;87.40;;;;;;5158020;27;20038;-60
2022/04/08 01:27:02;;;;;;;11.68;1.77;;;4.20;85.70;;;;;;5175132;27;20441;-60
2022/04/08 01:29:28;;;;;;;9.95;1.83;;;3.90;86.70;;;;;;5174558;27;20451;-56
2022/04/08 01:31:54;;;;;;;10.80;1.67;;;3.70;87.40;;;;;;5159211;27;20023;-62
2022/04/08 01:34:19;;;;;;;10.35;2.55;;;3.40;87.80;;;;;;5177443;27;20022;-63
2022/04/08 01:36:45;;;;;;;11.40;2.25;;;3.50;88.80;;;;;;5155631;27;20049;-62
2022/04/08 01:39:10;;;;;;;8.32;3.15;;;3.60;89.00;;;;;;5177531;27;20026;-63
2022/04/08 01:41:36;;;;;;;8.82;1.92;;;3.80;88.90;;;;;;5175016;27;20010;-61
2022/04/08 01:44:01;;;;;;;7.32;1.45;;;3.80;88.40;;;;;;5157233;27;20038;-59
2022/04/08 01:46:27;;;;;;;8.70;1.67;;;3.80;86.90;;;;;;5175686;27;20053;-59
2022/04/08 01:48:55;;;;;;;11.32;1.52;;;3.90;86.50;;;;;;5157141;27;20018;-55
2022/04/08 01:51:26;;;;;;;12.60;1.63;;;3.90;86.00;;;;;;5175327;27;20096;-56
2022/04/08 01:53:52;;;;;;;8.70;1.85;;;4.10;86.30;;;;;;5168623;27;20504;-55
2022/04/08 01:56:17;;;;;;;12.48;2.28;;;4.20;86.50;;;;;;5176464;27;20038;-56
2022/04/08 01:58:43;;;;;;;9.05;1.52;;;4.20;86.70;;;;;;5176180;27;20448;-53
2022/04/08 02:01:11;;;;;;;13.98;2.58;;;4.30;86.50;;;;;;5175456;27;20511;-52
2022/04/08 02:03:37;;;;;;;15.20;2.80;;;4.30;86.40;;;;;;5176140;27;20113;-51
2022/04/08 02:06:05;;;;;;;9.13;1.58;;;4.40;86.60;;;;;;5175147;27;20117;-53
2022/04/08 02:08:31;;;;;;;14.27;2.67;;;4.40;86.70;;;;;;5175411;27;20022;-55
2022/04/08 02:10:56;;;;;;;20.92;2.50;;;4.40;87.00;;;;;;5174877;27;20030;-55
2022/04/08 02:13:22;;;;;;;12.15;2.55;;;4.50;87.10;;;;;;5143136;27;20051;-50
2022/04/08 02:15:48;;;;;;;12.40;2.28;;;4.60;87.20;;;;;;5155421;27;20520;-51
2022/04/08 02:18:14;;;;;;;13.07;2.50;;;4.60;86.60;;;;;;5132380;27;20034;-50
2022/04/08 02:20:41;;;;;;;9.70;2.17;;;4.60;85.00;;;;;;5165801;27;20174;-49
2022/04/08 02:23:07;;;;;;;15.07;2.85;;;4.70;84.00;;;;;;5142989;27;20042;-50
2022/04/08 02:25:33;;;;;;;18.13;2.47;;;4.70;82.70;;;;;;5119807;27;20117;-49
2022/04/08 02:27:59;;;;;;;15.10;2.55;;;4.80;82.90;;;;;;5140084;27;20174;-47
2022/04/08 02:30:25;;;;;;;11.35;2.83;;;4.80;82.20;;;;;;5156965;27;20026;-47
2022/04/08 02:32:50;;;;;;;17.70;3.85;;;4.90;82.40;;;;;;5174943;27;20014;-47
2022/04/08 02:35:16;;;;;;;13.90;2.67;;;4.90;82.20;;;;;;5175432;27;20038;-48
2022/04/08 02:37:42;;;;;;;12.57;2.35;;;4.90;82.10;;;;;;5175312;27;20127;-47
2022/04/08 02:40:08;;;;;;;11.88;2.25;;;4.90;81.80;;;;;;5152825;27;20030;-47
2022/04/08 02:42:33;;;;;;;17.48;2.50;;;5.00;81.50;;;;;;5169612;27;20028;-46
2022/04/08 02:45:00;;;;;;;14.05;2.75;;;5.00;81.30;;;;;;5157124;27;20035;-46
2022/04/08 02:47:26;;;;;;;17.08;2.92;;;5.00;81.30;;;;;;5171818;27;20028;-50
2022/04/08 02:49:51;;;;;;;14.07;2.42;;;5.00;81.30;;;;;;5155444;27;20026;-46
2022/04/08 02:52:17;;;;;;;19.05;3.17;;;5.00;81.50;;;;;;5175039;27;20037;-46
2022/04/08 02:54:42;;;;;;;16.08;3.05;;;5.00;81.30;;;;;;5174787;27;20022;-46
2022/04/08 02:57:08;;;;;;;12.80;2.17;;;5.00;81.20;;;;;;5152616;27;20026;-46
2022/04/08 02:59:34;;;;;;;19.85;4.55;;;5.00;81.30;;;;;;5154821;27;20034;-46
2022/04/08 03:01:59;;;;;;;13.15;3.25;;;5.10;80.90;;;;;;5154509;27;20058;-45
2022/04/08 03:04:25;;;;;;;18.05;3.03;;;5.10;81.10;;;;;;5148552;27;20106;-45
2022/04/08 03:06:52;;;;;;;16.52;3.90;;;5.10;80.80;;;;;;5172810;27;20037;-45
2022/04/08 03:09:17;;;;;;;11.60;2.40;;;5.00;80.20;;;;;;5156343;27;20036;-46
2022/04/08 03:11:43;;;;;;;17.10;2.03;;;5.00;79.40;;;;;;5162606;27;20019;-44
2022/04/08 03:14:09;;;;;;;20.88;3.63;;;5.00;79.00;;;;;;5149886;27;20100;-43
2022/04/08 03:16:34;;;;;;;18.33;3.53;;;5.10;78.40;;;;;;5152772;27;20039;-45
2022/04/08 03:19:00;;;;;;;11.23;2.38;;;5.10;78.60;;;;;;5151898;27;20455;-45
2022/04/08 03:21:27;;;;;;;21.23;3.80;;;5.20;78.60;;;;;;5124383;27;20449;-44
2022/04/08 03:23:53;;;;;;;13.52;2.58;;;5.10;78.90;;;;;;5131592;27;20076;-43
2022/04/08 03:26:21;;;;;;;11.68;2.67;;;5.10;79.00;;;;;;5154592;27;20069;-48
2022/04/08 03:28:46;;;;;;;14.98;2.15;;;5.10;78.90;;;;;;5154223;27;20457;-44
2022/04/08 03:31:12;;;;;;;11.45;2.63;;;5.10;78.70;;;;;;5151961;27;20050;-44
2022/04/08 03:33:39;;;;;;;13.50;2.53;;;5.10;78.30;;;;;;5153660;27;20098;-44
2022/04/08 03:36:05;;;;;;;17.15;2.78;;;5.00;78.30;;;;;;5153693;27;20069;-43
2022/04/08 03:38:30;;;;;;;13.43;2.05;;;5.00;78.60;;;;;;5147341;27;20046;-44
2022/04/08 03:40:56;;;;;;;9.05;2.20;;;5.00;77.70;;;;;;5146386;27;20360;-45
2022/04/08 03:43:21;;;;;;;14.60;2.78;;;4.90;77.40;;;;;;5133464;27;20124;-45
2022/04/08 03:45:47;;;;;;;11.40;2.15;;;4.90;77.20;;;;;;5152435;27;20019;-44
2022/04/08 03:48:13;;;;;;;17.35;3.33;;;4.90;77.10;;;;;;5133705;27;20238;-47
2022/04/08 03:50:38;;;;;;;12.95;2.10;;;4.90;77.20;;;;;;5116774;27;20420;-44
2022/04/08 03:53:04;;;;;;;12.00;2.55;;;4.80;77.10;;;;;;5156547;27;20037;-44
2022/04/08 03:55:32;;;;;;;12.57;2.50;;;4.80;77.40;;;;;;5142690;27;20071;-45
2022/04/08 03:57:57;;;;;;;12.77;2.47;;;4.80;77.90;;;;;;5138475;27;20042;-44
2022/04/08 04:00:23;;;;;;;13.15;3.05;;;4.90;77.90;;;;;;5156773;27;20039;-44
2022/04/08 04:02:48;;;;;;;11.55;1.65;;;4.90;77.80;;;;;;5157981;27;20099;-45
2022/04/08 04:05:16;;;;;;;12.73;2.22;;;4.90;78.00;;;;;;5157153;27;20061;-44
2022/04/08 04:07:44;;;;;;;11.25;2.00;;;4.90;77.90;;;;;;5151040;27;20417;-47
2022/04/08 04:10:11;;;;;;;13.60;2.72;;;4.90;78.40;;;;;;5147566;27;20099;-47
2022/04/08 04:12:38;;;;;;;15.88;2.72;;;4.90;78.20;;;;;;5176353;27;20018;-45
2022/04/08 04:15:04;;;;;;;11.90;2.03;;;4.90;78.70;;;;;;5191815;27;20049;-44
2022/04/08 04:17:30;;;;;;;15.15;2.58;;;4.90;78.40;;;;;;5176622;27;20018;-44
2022/04/08 04:19:56;;;;;;;14.10;2.55;;;4.90;78.50;;;;;;5161057;27;20022;-43
2022/04/08 04:22:21;;;;;;;16.63;3.47;;;4.90;78.70;;;;;;5175561;27;20026;-43
2022/04/08 04:24:47;;;;;;;12.65;2.10;;;4.90;79.00;;;;;;5176579;27;20378;-42
2022/04/08 04:27:13;;;;;;;13.13;2.72;;;4.90;79.40;;;;;;5174570;27;20026;-44
2022/04/08 04:29:38;;;;;;;16.10;2.63;;;4.90;79.80;;;;;;5170076;27;20440;-46
2022/04/08 04:32:05;;;;;;;12.38;4.60;;;4.90;80.40;;;;;;5176420;27;20030;-44
2022/04/08 04:34:32;;;;;;;6.97;1.58;;;4.90;81.20;;;;;;5169028;27;20077;-45
2022/04/08 04:36:58;;;;;;;7.28;1.13;;;4.80;81.00;;;;;;5156164;27;20416;-47
2022/04/08 04:39:23;;;;;;;6.35;1.50;;;4.70;81.50;;;;;;5176938;27;20050;-43
2022/04/08 04:41:49;;;;;;;7.28;1.45;;;4.60;82.30;;;;;;5168728;27;20014;-44
2022/04/08 04:44:17;;;;;;;9.73;1.50;;;4.40;83.10;;;;;;5172003;27;20073;-43
2022/04/08 04:46:43;;;;;;;7.38;2.38;;;4.20;83.90;;;;;;5167296;27;20030;-46
2022/04/08 04:49:10;;;;;;;5.50;1.42;;;4.00;84.10;;;;;;5177666;27;20058;-44
2022/04/08 04:51:36;;;;;;;3.97;1.20;;;3.90;84.50;;;;;;5177445;27;20083;-44
2022/04/08 04:54:01;;;;;;;3.95;1.10;;;3.70;84.50;;;;;;5159383;27;20508;-43
2022/04/08 04:56:27;;;;;;;6.10;1.20;;;3.70;85.30;;;;;;5170262;27;20742;-46
2022/04/08 04:58:53;;;;;;;4.90;0.90;;;3.70;86.20;;;;;;5167108;27;20027;-50
2022/04/08 05:01:18;;;;;;;4.47;1.10;;;3.70;86.00;;;;;;5165967;27;20030;-48
2022/04/08 05:03:44;;;;;;;2.67;1.42;;;3.70;86.10;;;;;;5166179;27;20041;-46
2022/04/08 05:06:09;;;;;;;5.57;1.02;;;3.70;85.90;;;;;;5169580;27;20034;-47
2022/04/08 05:08:35;;;;;;;7.18;2.75;;;3.70;86.00;;;;;;5158654;27;20014;-49
2022/04/08 05:11:01;;;;;;;3.85;0.80;;;3.80;85.80;;;;;;5174358;27;20055;-45
2022/04/08 05:13:26;;;;;;;4.30;1.00;;;3.80;85.70;;;;;;5175348;27;20071;-46
2022/04/08 05:15:54;;;;;;;8.63;1.45;;;3.90;85.80;;;;;;5177031;27;20042;-45
2022/04/08 05:18:20;;;;;;;3.45;1.00;;;3.90;85.80;;;;;;5176870;27;20022;-47
2022/04/08 05:20:45;;;;;;;4.40;0.93;;;4.00;85.70;;;;;;5176176;27;20028;-47
2022/04/08 05:23:11;;;;;;;5.63;1.42;;;4.00;85.40;;;;;;5170244;27;20117;-46
2022/04/08 05:25:37;;;;;;;7.05;1.65;;;4.10;85.30;;;;;;5166968;27;20417;-46
2022/04/08 05:28:02;;;;;;;6.13;1.00;;;4.10;85.10;;;;;;5168435;27;20022;-46
2022/04/08 05:30:28;;;;;;;4.93;1.05;;;4.00;85.10;;;;;;5159464;27;20037;-46
2022/04/08 05:32:55;;;;;;;4.85;1.30;;;4.00;85.00;;;;;;5158355;27;20049;-47
2022/04/08 05:35:21;;;;;;;5.78;1.88;;;4.00;85.00;;;;;;5174367;27;20133;-46
2022/04/08 05:37:48;;;;;;;4.93;1.23;;;4.00;85.10;;;;;;5170543;27;20385;-44
2022/04/08 05:40:18;;;;;;;9.95;1.40;;;4.10;85.30;;;;;;5160730;27;20045;-45
2022/04/08 05:42:45;;;;;;;9.63;1.92;;;4.00;85.20;;;;;;5169946;27;20046;-45
2022/04/08 05:45:11;;;;;;;5.25;1.23;;;4.00;85.50;;;;;;5154041;27;20031;-45
2022/04/08 05:47:38;;;;;;;4.53;0.98;;;4.10;85.70;;;;;;5155013;27;20052;-46
2022/04/08 05:50:04;;;;;;;5.47;1.35;;;4.20;85.60;;;;;;5175370;27;20018;-45
2022/04/08 05:52:30;;;;;;;4.50;1.23;;;4.20;85.50;;;;;;5170443;27;20018;-45
2022/04/08 05:54:55;;;;;;;9.18;3.22;;;4.30;85.40;;;;;;5171865;27;20444;-45
2022/04/08 05:57:21;;;;;;;2.50;0.80;;;4.40;85.40;;;;;;5168394;27;20023;-45
2022/04/08 05:59:47;;;;;;;3.33;1.08;;;4.40;85.20;;;;;;5155543;27;20046;-47
2022/04/08 06:02:13;;;;;;;7.75;1.27;;;4.40;85.10;;;;;;5165772;27;20034;-51
2022/04/08 06:04:39;;;;;;;5.43;1.30;;;4.50;84.90;;;;;;5163552;27;20054;-44
2022/04/08 06:07:05;;;;;;;5.15;0.85;;;4.50;84.90;;;;;;5146005;27;20041;-44
2022/04/08 06:09:32;;;;;;;8.45;2.97;;;4.60;84.70;;;;;;5174608;27;20033;-45
2022/04/08 06:12:02;;;;;;;5.57;1.15;;;4.60;84.30;;;;;;5174885;27;20037;-49
2022/04/08 06:14:30;;;;;;;3.23;0.93;;;4.70;84.30;;;;;;5167789;27;20070;-45
2022/04/08 06:16:58;;;;;;;6.38;1.40;;;4.70;84.10;;;;;;5163953;27;20023;-48
2022/04/08 06:19:23;;;;;;;4.15;1.27;;;4.80;84.40;;;;;;5169292;27;20018;-45
2022/04/08 06:21:49;;;;;;;5.53;1.40;;;5.00;84.30;;;;;;5148381;27;20038;-45
2022/04/08 06:24:17;;;;;;;5.72;1.48;;;5.20;84.30;;;;;;5167482;27;20029;-44
2022/04/08 06:26:42;;;;;;;7.00;1.35;;;5.30;84.40;;;;;;5174506;27;20023;-44
2022/04/08 06:29:09;;;;;;;7.70;1.88;;;5.40;84.20;;;;;;5175105;27;20419;-43
2022/04/08 06:31:34;;;;;;;8.07;2.10;;;5.50;83.80;;;;;;5156105;27;20014;-44
2022/04/08 06:34:03;;;;;;;6.78;1.30;;;5.60;84.00;;;;;;5175613;27;20679;-44
2022/04/08 06:36:29;;;;;;;4.68;1.40;;;5.80;84.10;;;;;;5174669;27;20443;-43
2022/04/08 06:38:55;;;;;;;8.52;2.45;;;5.90;84.20;;;;;;5155351;27;20055;-44
2022/04/08 06:41:21;;;;;;;5.75;1.88;;;6.00;83.30;;;;;;5142232;27;20026;-44
2022/04/08 06:43:46;;;;;;;9.18;2.17;;;6.00;83.60;;;;;;5170775;27;20026;-43
2022/04/08 06:46:13;;;;;;;10.25;2.63;;;6.20;84.20;;;;;;5154167;27;20041;-44
2022/04/08 06:48:41;;;;;;;7.78;2.13;;;6.30;83.30;;;;;;5174420;27;20487;-44
2022/04/08 06:51:06;;;;;;;9.23;2.78;;;6.30;82.80;;;;;;5175135;27;20033;-44
2022/04/08 06:53:33;;;;;;;17.00;2.60;;;6.40;83.00;;;;;;5173889;27;20037;-43
2022/04/08 06:56:01;;;;;;;7.78;2.83;;;6.50;82.90;;;;;;5172100;27;20026;-43
2022/04/08 06:58:28;;;;;;;12.07;3.22;;;6.60;82.80;;;;;;5173989;27;20081;-43
2022/04/08 07:00:54;;;;;;;11.45;3.20;;;6.90;82.80;;;;;;5156064;27;20030;-45
2022/04/08 07:03:20;;;;;;;8.38;1.95;;;6.90;82.40;;;;;;5165538;27;20109;-42
2022/04/08 07:05:45;;;;;;;7.45;2.17;;;6.90;81.50;;;;;;5171195;27;20035;-44
2022/04/08 07:08:11;;;;;;;10.00;2.65;;;6.60;81.60;;;;;;5173602;27;20026;-43
2022/04/08 07:10:40;;;;;;;5.28;2.22;;;6.60;82.20;;;;;;5169005;27;20022;-43
2022/04/08 07:13:06;;;;;;;11.82;2.65;;;6.60;82.60;;;;;;5174024;27;20667;-42
2022/04/08 07:15:32;;;;;;;11.00;3.78;;;6.60;82.00;;;;;;5174685;27;20592;-44
2022/04/08 07:17:58;;;;;;;10.50;2.83;;;6.50;82.10;;;;;;5155977;27;20094;-45
2022/04/08 07:20:24;;;;;;;10.13;2.20;;;6.50;81.80;;;;;;5173975;27;20360;-43
2022/04/08 07:22:51;;;;;;;10.07;2.90;;;6.70;82.60;;;;;;5161523;27;20433;-44
2022/04/08 07:25:18;;;;;;;9.90;2.65;;;6.90;82.30;;;;;;5161794;27;20026;-44
2022/04/08 07:27:52;;;;;;;16.25;2.88;;;7.10;82.10;;;;;;5165259;27;20031;-43
2022/04/08 07:30:19;;;;;;;6.38;2.28;;;7.40;82.10;;;;;;5136914;27;20026;-42
2022/04/08 07:32:52;;;;;;;10.80;4.15;;;7.50;82.00;;;;;;5147819;27;20019;-45
2022/04/08 07:35:18;;;;;;;10.77;3.10;;;7.60;81.20;;;;;;5174179;27;20038;-44
2022/04/08 07:37:44;;;;;;;11.32;3.80;;;7.80;80.40;;;;;;5174670;27;20532;-42
2022/04/08 07:40:12;;;;;;;11.60;3.03;;;7.80;80.20;;;;;;5170043;27;20038;-44
2022/04/08 07:42:38;;;;;;;10.75;2.28;;;7.70;79.60;;;;;;5155493;27;20050;-45
2022/04/08 07:45:07;;;;;;;18.10;5.57;;;7.40;78.10;;;;;;5174149;27;20365;-42
2022/04/08 07:47:34;;;;;;;11.60;1.80;;;7.10;78.60;;;;;;5173170;27;20322;-43
2022/04/08 07:50:09;;;;;;;9.30;2.22;;;7.00;78.00;;;;;;5172845;27;20303;-42
2022/04/08 07:52:34;;;;;;;7.82;2.53;;;7.40;77.30;;;;;;5174642;27;20401;-43
2022/04/08 07:55:00;;;;;;;12.02;2.63;;;8.10;75.10;;;;;;5174009;27;20034;-48
2022/04/08 07:57:26;;;;;;;10.30;2.53;;;8.90;75.10;;;;;;5155515;27;20023;-43
2022/04/08 07:59:52;;;;;;;12.20;3.50;;;9.30;72.30;;;;;;5168055;27;20034;-45
2022/04/08 08:02:20;;;;;;;11.73;1.67;;;9.50;71.10;;;;;;5171245;27;20038;-44
2022/04/08 08:04:47;;;;;;;9.73;1.33;;;9.00;69.90;;;;;;5171980;27;20042;-42
2022/04/08 08:07:13;;;;;;;6.97;1.65;;;8.80;71.80;;;;;;5174110;27;20037;-43
2022/04/08 08:09:39;;;;;;;8.15;1.85;;;9.20;72.60;;;;;;5155633;27;20023;-43
2022/04/08 08:12:05;;;;;;;6.95;1.73;;;9.70;69.90;;;;;;5172371;27;20054;-44
2022/04/08 08:14:30;;;;;;;7.45;2.40;;;9.90;69.20;;;;;;5155421;27;20106;-42
2022/04/08 08:16:59;;;;;;;2.97;1.50;;;10.20;67.40;;;;;;5165667;27;20454;-45
2022/04/08 08:19:28;;;;;;;5.67;1.73;;;10.10;66.60;;;;;;5174268;27;20242;-43
2022/04/08 08:21:54;;;;;;;9.55;1.40;;;9.70;66.00;;;;;;5172630;27;20067;-44
2022/04/08 08:24:20;;;;;;;4.95;1.45;;;9.40;68.70;;;;;;5173791;27;20026;-45
2022/04/08 08:26:45;;;;;;;5.65;1.45;;;9.10;70.00;;;;;;5172435;27;20474;-43
2022/04/08 08:29:11;;;;;;;7.05;1.83;;;8.80;70.40;;;;;;5172255;27;20122;-43
2022/04/08 08:31:36;;;;;;;5.68;1.27;;;8.40;71.80;;;;;;5164265;27;20027;-46
2022/04/08 08:34:02;;;;;;;3.88;1.13;;;8.20;70.90;;;;;;5168754;27;20034;-47
2022/04/08 08:36:29;;;;;;;5.70;1.63;;;8.00;72.10;;;;;;5173175;27;20030;-43
2022/04/08 08:39:01;;;;;;;11.13;1.98;;;7.80;72.30;;;;;;5166072;27;20527;-42
2022/04/08 08:41:39;;;;;;;6.20;1.30;;;8.00;72.10;;;;;;5144471;27;20027;-44
2022/04/08 08:44:08;;;;;;;8.88;2.35;;;8.10;70.50;;;;;;5157080;27;20361;-45
2022/04/08 08:46:35;;;;;;;3.67;1.35;;;8.20;69.60;;;;;;5174468;27;20392;-45
2022/04/08 08:49:03;;;;;;;11.82;2.25;;;8.30;69.80;;;;;;5176264;27;20380;-44
2022/04/08 08:51:34;;;;;;;9.90;2.05;;;9.00;73.40;;;;;;5177214;27;20046;-43
2022/04/08 08:54:00;;;;;;;8.05;1.83;;;9.70;71.90;;;;;;5177711;27;20037;-43
2022/04/08 08:56:26;;;;;;;8.70;2.63;;;10.30;69.30;;;;;;5176243;27;20030;-43
2022/04/08 08:58:51;;;;;;;7.30;1.35;;;10.80;67.80;;;;;;5176875;27;20074;-46
2022/04/08 09:01:17;;;;;;;7.32;1.83;;;11.00;66.30;;;;;;5174873;27;20037;-44
2022/04/08 09:03:44;;;;;;;10.20;2.60;;;11.30;66.10;;;;;;5177552;27;20038;-42
2022/04/08 09:06:12;;;;;;;7.32;1.92;;;11.00;64.80;;;;;;5158729;27;20454;-47
2022/04/08 09:08:38;;;;;;;5.95;2.10;;;10.90;64.40;;;;;;5173063;27;20044;-46
2022/04/08 09:11:05;;;;;;;11.35;3.13;;;10.60;62.50;;;;;;5168418;27;20022;-42
2022/04/08 09:13:41;;;;;;;7.47;2.80;;;10.10;66.30;;;;;;5139884;27;20031;-42
2022/04/08 09:16:06;;;;;;;8.70;2.30;;;9.70;68.40;;;;;;5154653;27;20038;-44
2022/04/08 09:18:37;;;;;;;9.90;2.20;;;9.90;68.90;;;;;;5153937;27;20045;-44
2022/04/08 09:21:03;;;;;;;7.70;1.80;;;10.40;66.90;;;;;;5155021;27;20038;-43
2022/04/08 09:23:29;;;;;;;5.45;1.95;;;10.10;62.10;;;;;;5171126;27;20078;-43
2022/04/08 09:26:14;;;;;;;5.63;1.30;;;10.10;63.50;;;;;;5160379;27;20030;-44
2022/04/08 09:28:43;;;;;;;4.60;1.23;;;10.90;64.40;;;;;;5154653;27;20030;-45
2022/04/08 09:31:21;;;;;;;7.72;1.90;;;11.70;61.50;;;;;;5137454;27;20037;-43
2022/04/08 09:33:52;;;;;;;4.65;1.75;;;12.30;58.50;;;;;;5155353;27;20063;-43
2022/04/08 09:36:32;;;;;;;3.47;1.05;;;12.40;57.10;;;;;;5155781;27;20373;-41
2022/04/08 09:38:58;;;;;;;3.83;1.10;;;12.20;55.90;;;;;;5153446;27;20023;-42
2022/04/08 09:41:43;;;;;;;3.65;0.93;;;11.70;57.30;;;;;;5152105;27;20564;-44
2022/04/08 09:44:11;;;;;;;8.07;1.23;;;11.40;58.60;;;;;;5152942;27;20113;-43
2022/04/08 09:46:38;;;;;;;7.90;2.42;;;10.40;56.70;;;;;;5154694;27;20023;-44
2022/04/08 09:49:07;;;;;;;5.93;1.40;;;10.10;61.80;;;;;;5155202;27;20140;-43
2022/04/08 09:51:37;;;;;;;11.88;1.95;;;10.40;62.20;;;;;;5136553;27;20058;-44
2022/04/08 09:54:05;;;;;;;6.25;2.03;;;10.60;60.80;;;;;;5154971;27;20101;-44
2022/04/08 09:56:31;;;;;;;9.13;1.80;;;10.40;59.90;;;;;;5136970;27;20058;-44
2022/04/08 09:59:19;;;;;;;8.52;1.25;;;10.40;61.60;;;;;;5154661;27;20066;-40
2022/04/08 10:01:46;;;;;;;2.88;0.77;;;9.40;67.50;;;;;;5154532;27;20364;-41
2022/04/08 10:04:12;;;;;;;5.38;1.13;;;8.70;69.80;;;;;;5150940;27;20050;-40
2022/04/08 10:06:43;;;;;;;9.00;1.42;;;8.20;72.50;;;;;;5149090;27;20364;-43
2022/04/08 10:09:14;;;;;;;5.47;1.58;;;8.00;73.70;;;;;;5117687;27;20359;-44
2022/04/08 10:12:07;;;;;;;6.28;1.73;;;7.80;75.90;;;;;;5136501;27;20374;-43
2022/04/08 10:14:54;;;;;;;8.10;1.70;;;8.40;77.30;;;;;;5134520;27;20151;-41
2022/04/08 10:17:20;;;;;;;6.38;1.70;;;9.20;76.60;;;;;;5154213;27;20023;-42
2022/04/08 10:19:45;;;;;;;7.43;1.70;;;9.90;74.40;;;;;;5154339;27;20026;-42
2022/04/08 10:22:16;;;;;;;6.07;1.05;;;10.60;70.60;;;;;;5158829;27;20029;-42
2022/04/08 10:24:54;;;;;;;4.28;1.13;;;10.60;68.90;;;;;;5117932;27;20461;-41
2022/04/08 10:27:38;;;;;;;4.15;1.08;;;10.00;66.30;;;;;;5149779;27;20014;-44
2022/04/08 10:30:10;;;;;;;8.35;1.80;;;9.90;66.40;;;;;;5150009;27;20039;-41
2022/04/08 10:32:40;;;;;;;6.03;1.17;;;10.20;66.80;;;;;;5162918;27;20051;-41
2022/04/08 10:35:19;;;;;;;5.30;1.67;;;10.30;60.80;;;;;;5153856;27;20102;-42
2022/04/08 10:37:58;;;;;;;3.40;1.17;;;10.10;61.10;;;;;;5162801;27;20042;-41
2022/04/08 10:40:37;;;;;;;5.90;1.42;;;10.20;60.90;;;;;;5125832;27;20288;-41
2022/04/08 10:43:05;;;;;;;4.45;0.93;;;10.10;61.00;;;;;;5151717;27;20034;-41
2022/04/08 10:45:31;;;;;;;2.60;1.00;;;9.90;61.20;;;;;;5154764;27;20046;-41
2022/04/08 10:48:21;;;;;;;6.43;1.13;;;10.00;60.00;;;;;;5154175;27;20058;-41
2022/04/08 10:50:46;;;;;;;8.98;0.90;;;10.00;61.20;;;;;;5151682;27;20026;-43
2022/04/08 10:53:14;;;;;;;3.78;1.73;;;10.40;58.00;;;;;;5155215;27;20038;-41
2022/04/08 10:55:53;;;;;;;7.10;1.13;;;10.00;58.70;;;;;;5158129;27;20027;-46
2022/04/08 10:58:38;;;;;;;4.22;0.70;;;9.80;60.80;;;;;;5158124;27;20019;-42
2022/04/08 11:01:13;;;;;;;5.72;0.90;;;9.20;58.50;;;;;;5149945;27;20053;-46
2022/04/08 11:03:44;;;;;;;6.38;2.13;;;9.20;62.50;;;;;;5135516;27;20376;-45
2022/04/08 11:06:10;;;;;;;4.32;0.98;;;9.10;62.90;;;;;;5142410;27;20090;-46
2022/04/08 11:08:36;;;;;;;4.80;1.02;;;9.20;64.50;;;;;;5151402;27;20034;-43
2022/04/08 11:11:02;;;;;;;5.45;1.88;;;9.10;64.70;;;;;;5133075;27;20024;-44
2022/04/08 11:13:27;;;;;;;8.27;1.40;;;9.40;62.60;;;;;;5152799;27;20043;-43
2022/04/08 11:15:53;;;;;;;3.35;1.00;;;9.70;63.90;;;;;;5133394;27;20039;-44
2022/04/08 11:18:19;;;;;;;5.22;0.95;;;9.90;63.80;;;;;;5153582;27;20019;-40
2022/04/08 11:20:50;;;;;;;6.13;1.42;;;9.70;63.50;;;;;;5153072;27;20349;-42
2022/04/08 11:23:32;;;;;;;4.90;1.30;;;10.00;64.10;;;;;;5140165;27;20034;-41
2022/04/08 11:26:00;;;;;;;3.85;1.52;;;10.50;63.50;;;;;;5148517;27;20023;-42
2022/04/08 11:28:26;;;;;;;5.15;1.27;;;10.90;62.10;;;;;;5151898;27;20031;-42
2022/04/08 11:30:57;;;;;;;6.03;1.10;;;11.40;59.40;;;;;;5131569;27;20122;-41
2022/04/08 11:33:23;;;;;;;3.10;0.73;;;11.60;57.20;;;;;;5153542;27;20065;-44
2022/04/08 11:35:58;;;;;;;5.30;0.93;;;11.70;55.10;;;;;;5134997;27;20038;-42
2022/04/08 11:38:24;;;;;;;3.75;0.90;;;11.80;54.90;;;;;;5151823;27;20118;-41
2022/04/08 11:40:51;;;;;;;7.30;1.20;;;11.70;56.40;;;;;;5142956;27;20038;-42
2022/04/08 11:43:18;;;;;;;3.85;1.77;;;11.50;55.70;;;;;;5153438;27;20030;-43
2022/04/08 11:45:45;;;;;;;6.68;1.95;;;11.60;58.10;;;;;;5152878;27;20019;-42
2022/04/08 11:48:16;;;;;;;7.25;1.55;;;11.50;56.40;;;;;;5132880;27;20396;-45
2022/04/08 11:50:43;;;;;;;5.38;0.93;;;11.50;57.80;;;;;;5152374;27;20088;-41
2022/04/08 11:53:17;;;;;;;8.60;1.63;;;11.40;58.10;;;;;;5153834;27;20118;-45
2022/04/08 11:56:00;;;;;;;4.53;1.00;;;11.40;59.50;;;;;;5134890;27;20023;-42
2022/04/08 11:58:29;;;;;;;10.55;1.60;;;11.40;59.70;;;;;;5135011;27;20451;-44
2022/04/08 12:00:58;;;;;;;4.57;0.90;;;10.70;63.00;;;;;;5152620;27;20128;-44
2022/04/08 12:03:28;;;;;;;4.13;1.00;;;9.90;66.50;;;;;;5152904;27;20091;-42
2022/04/08 12:05:54;;;;;;;5.40;1.33;;;9.90;65.30;;;;;;5150655;27;20023;-43
2022/04/08 12:08:22;;;;;;;6.20;1.25;;;9.80;65.60;;;;;;5131567;27;21756;-42
2022/04/08 12:11:12;;;;;;;10.20;1.50;;;9.70;64.50;;;;;;5147574;27;20400;-41
2022/04/08 12:13:42;;;;;;;10.70;1.85;;;9.90;65.80;;;;;;5156818;27;20045;-43
2022/04/08 12:16:10;;;;;;;7.22;2.10;;;10.00;66.70;;;;;;5177108;27;20040;-44
2022/04/08 12:18:45;;;;;;;8.10;1.42;;;9.70;67.00;;;;;;5170184;27;20113;-43
2022/04/08 12:21:11;;;;;;;5.43;1.27;;;9.80;66.70;;;;;;5175667;27;20105;-41
2022/04/08 12:23:40;;;;;;;4.80;1.15;;;9.80;62.60;;;;;;5147313;27;20469;-42
2022/04/08 12:26:07;;;;;;;;;;;9.60;64.10;;;;;;5147011;27;20043;-43
2022/04/08 12:28:35;;;;;;;6.82;1.50;;;9.90;63.00;;;;;;5139805;27;20256;-41
2022/04/08 12:31:21;;;;;;;5.22;1.10;;;10.00;61.30;;;;;;5150895;27;20019;-42
2022/04/08 12:33:47;;;;;;;8.20;1.30;;;10.20;61.90;;;;;;5169660;27;20037;-43
2022/04/08 12:36:13;;;;;;;6.10;0.90;;;10.10;62.30;;;;;;5168521;27;20034;-44
2022/04/08 12:38:39;;;;;;;3.28;1.02;;;10.10;61.10;;;;;;5167940;27;20041;-41
2022/04/08 12:41:05;;;;;;;5.22;1.15;;;10.00;61.00;;;;;;5168847;27;20353;-44
2022/04/08 12:43:33;;;;;;;3.05;0.77;;;10.30;60.30;;;;;;5175856;27;20389;-42
2022/04/08 12:45:59;;;;;;;7.22;1.80;;;10.50;59.80;;;;;;5176908;27;20034;-41
2022/04/08 12:48:25;;;;;;;5.10;1.27;;;10.70;56.70;;;;;;5176071;27;20044;-42
2022/04/08 12:50:50;;;;;;;2.33;0.90;;;10.70;56.70;;;;;;5142917;27;20349;-43
2022/04/08 12:53:16;;;;;;;6.88;1.08;;;10.70;58.00;;;;;;5157280;27;20026;-44
2022/04/08 12:55:44;;;;;;;5.35;1.58;;;10.60;56.40;;;;;;5158176;27;20406;-46